sensor_id;sensor_type;location;lat;lon;timestamp;P1;durP1;ratioP1;P2;durP2;ratioP2
6207;SDS011;3137;51.550;7.060;2023-06-14T00:01:28;8.53;;;7.67;;
6207;SDS011;3137;51.550;7.060;2023-06-14T00:03:55;9.33;;;8.37;;
6207;SDS011;3137;51.550;7.060;2023-06-14T00:06:22;8.73;;;8.33;;
6207;SDS011;3137;51.550;7.060;2023-06-14T00:08:50;9.53;;;9.23;;
6207;SDS011;3137;51.550;7.060;2023-06-14T00:11:17;7.97;;;7.67;;
6207;SDS011;3137;51.550;7.060;2023-06-14T00:13:43;9.13;;;8.83;;
6207;SDS011;3137;51.550;7.060;2023-06-14T00:16:10;8.57;;;8.30;;
6207;SDS011;3137;51.550;7.060;2023-06-14T00:18:36;7.53;;;7.33;;
6207;SDS011;3137;51.550;7.060;2023-06-14T00:21:04;8.47;;;8.10;;
6207;SDS011;3137;51.550;7.060;2023-06-14T00:23:31;8.93;;;8.40;;
6207;SDS011;3137;51.550;7.060;2023-06-14T00:25:57;8.67;;;8.07;;
6207;SDS011;3137;51.550;7.060;2023-06-14T00:28:23;12.00;;;8.33;;
6207;SDS011;3137;51.550;7.060;2023-06-14T00:30:50;8.97;;;8.00;;
6207;SDS011;3137;51.550;7.060;2023-06-14T00:33:16;8.03;;;7.80;;
6207;SDS011;3137;51.550;7.060;2023-06-14T00:35:43;8.60;;;7.90;;
6207;SDS011;3137;51.550;7.060;2023-06-14T00:38:09;7.77;;;7.20;;
6207;SDS011;3137;51.550;7.060;2023-06-14T00:40:36;7.53;;;7.43;;
6207;SDS011;3137;51.550;7.060;2023-06-14T00:43:02;8.33;;;8.00;;
6207;SDS011;3137;51.550;7.060;2023-06-14T00:45:29;8.33;;;7.83;;
6207;SDS011;3137;51.550;7.060;2023-06-14T00:47:57;7.33;;;7.10;;
6207;SDS011;3137;51.550;7.060;2023-06-14T00:50:24;8.23;;;7.60;;
6207;SDS011;3137;51.550;7.060;2023-06-14T00:52:50;7.63;;;7.33;;
6207;SDS011;3137;51.550;7.060;2023-06-14T00:55:17;8.17;;;7.27;;
6207;SDS011;3137;51.550;7.060;2023-06-14T00:57:44;6.93;;;6.83;;
6207;SDS011;3137;51.550;7.060;2023-06-14T01:00:12;7.77;;;7.57;;
6207;SDS011;3137;51.550;7.060;2023-06-14T01:02:39;7.60;;;6.90;;
6207;SDS011;3137;51.550;7.060;2023-06-14T01:05:08;7.80;;;7.43;;
6207;SDS011;3137;51.550;7.060;2023-06-14T01:13:05;6.87;;;6.53;;
6207;SDS011;3137;51.550;7.060;2023-06-14T01:15:37;7.77;;;7.23;;
6207;SDS011;3137;51.550;7.060;2023-06-14T01:18:04;7.30;;;6.90;;
6207;SDS011;3137;51.550;7.060;2023-06-14T01:20:33;6.77;;;6.67;;
6207;SDS011;3137;51.550;7.060;2023-06-14T01:23:04;7.13;;;6.87;;
6207;SDS011;3137;51.550;7.060;2023-06-14T01:25:30;7.03;;;6.57;;
6207;SDS011;3137;51.550;7.060;2023-06-14T01:27:59;6.80;;;6.60;;
6207;SDS011;3137;51.550;7.060;2023-06-14T01:30:29;7.23;;;6.00;;
6207;SDS011;3137;51.550;7.060;2023-06-14T01:32:57;7.07;;;6.60;;
6207;SDS011;3137;51.550;7.060;2023-06-14T01:35:24;6.87;;;6.67;;
6207;SDS011;3137;51.550;7.060;2023-06-14T01:37:51;6.77;;;6.67;;
6207;SDS011;3137;51.550;7.060;2023-06-14T01:40:19;7.13;;;6.90;;
6207;SDS011;3137;51.550;7.060;2023-06-14T01:42:47;13.23;;;6.60;;
6207;SDS011;3137;51.550;7.060;2023-06-14T01:45:16;7.30;;;7.13;;
6207;SDS011;3137;51.550;7.060;2023-06-14T01:47:44;6.77;;;6.57;;
6207;SDS011;3137;51.550;7.060;2023-06-14T01:50:12;15.83;;;7.03;;
6207;SDS011;3137;51.550;7.060;2023-06-14T01:52:39;7.93;;;7.30;;
6207;SDS011;3137;51.550;7.060;2023-06-14T01:55:06;7.07;;;6.37;;
6207;SDS011;3137;51.550;7.060;2023-06-14T01:57:34;7.50;;;7.00;;
6207;SDS011;3137;51.550;7.060;2023-06-14T02:00:00;6.70;;;6.30;;
6207;SDS011;3137;51.550;7.060;2023-06-14T02:02:27;7.90;;;7.10;;
6207;SDS011;3137;51.550;7.060;2023-06-14T02:04:53;7.27;;;6.63;;
6207;SDS011;3137;51.550;7.060;2023-06-14T02:07:23;7.23;;;6.80;;
6207;SDS011;3137;51.550;7.060;2023-06-14T02:09:50;6.77;;;6.67;;
6207;SDS011;3137;51.550;7.060;2023-06-14T02:12:17;7.70;;;7.30;;
6207;SDS011;3137;51.550;7.060;2023-06-14T02:14:43;6.33;;;6.13;;
6207;SDS011;3137;51.550;7.060;2023-06-14T02:17:10;6.93;;;6.57;;
6207;SDS011;3137;51.550;7.060;2023-06-14T02:19:37;7.40;;;7.10;;
6207;SDS011;3137;51.550;7.060;2023-06-14T02:22:04;6.43;;;6.33;;
6207;SDS011;3137;51.550;7.060;2023-06-14T02:24:33;6.80;;;6.60;;
6207;SDS011;3137;51.550;7.060;2023-06-14T02:27:00;7.13;;;6.83;;
6207;SDS011;3137;51.550;7.060;2023-06-14T02:29:26;6.90;;;6.60;;
6207;SDS011;3137;51.550;7.060;2023-06-14T02:31:52;6.53;;;6.33;;
6207;SDS011;3137;51.550;7.060;2023-06-14T02:34:20;7.30;;;6.97;;
6207;SDS011;3137;51.550;7.060;2023-06-14T02:36:47;6.30;;;6.03;;
6207;SDS011;3137;51.550;7.060;2023-06-14T02:39:14;6.73;;;6.50;;
6207;SDS011;3137;51.550;7.060;2023-06-14T02:41:42;5.97;;;5.97;;
6207;SDS011;3137;51.550;7.060;2023-06-14T02:44:09;6.63;;;6.50;;
6207;SDS011;3137;51.550;7.060;2023-06-14T02:46:37;6.67;;;6.53;;
6207;SDS011;3137;51.550;7.060;2023-06-14T02:49:04;6.13;;;6.00;;
6207;SDS011;3137;51.550;7.060;2023-06-14T02:51:31;5.93;;;5.73;;
6207;SDS011;3137;51.550;7.060;2023-06-14T02:53:57;6.80;;;6.13;;
6207;SDS011;3137;51.550;7.060;2023-06-14T02:56:24;5.67;;;5.57;;
6207;SDS011;3137;51.550;7.060;2023-06-14T02:58:52;6.70;;;6.40;;
6207;SDS011;3137;51.550;7.060;2023-06-14T03:01:19;6.90;;;6.60;;
6207;SDS011;3137;51.550;7.060;2023-06-14T03:03:47;6.83;;;6.53;;
6207;SDS011;3137;51.550;7.060;2023-06-14T03:06:14;9.60;;;5.80;;
6207;SDS011;3137;51.550;7.060;2023-06-14T03:08:44;6.87;;;6.30;;
6207;SDS011;3137;51.550;7.060;2023-06-14T03:11:14;6.47;;;6.27;;
6207;SDS011;3137;51.550;7.060;2023-06-14T03:13:41;8.57;;;6.77;;
6207;SDS011;3137;51.550;7.060;2023-06-14T03:16:07;6.63;;;6.23;;
6207;SDS011;3137;51.550;7.060;2023-06-14T03:18:37;6.27;;;6.00;;
6207;SDS011;3137;51.550;7.060;2023-06-14T03:21:05;6.33;;;6.20;;
6207;SDS011;3137;51.550;7.060;2023-06-14T03:23:36;6.03;;;5.40;;
6207;SDS011;3137;51.550;7.060;2023-06-14T03:26:03;7.20;;;6.90;;
6207;SDS011;3137;51.550;7.060;2023-06-14T03:28:29;5.73;;;5.57;;
6207;SDS011;3137;51.550;7.060;2023-06-14T03:30:56;7.23;;;7.03;;
6207;SDS011;3137;51.550;7.060;2023-06-14T03:33:24;6.13;;;6.00;;
6207;SDS011;3137;51.550;7.060;2023-06-14T03:35:52;7.13;;;6.53;;
6207;SDS011;3137;51.550;7.060;2023-06-14T03:38:18;6.93;;;6.57;;
6207;SDS011;3137;51.550;7.060;2023-06-14T03:40:45;7.27;;;7.00;;
6207;SDS011;3137;51.550;7.060;2023-06-14T03:43:11;7.00;;;6.70;;
6207;SDS011;3137;51.550;7.060;2023-06-14T03:45:38;7.07;;;6.37;;
6207;SDS011;3137;51.550;7.060;2023-06-14T03:48:04;5.73;;;5.57;;
6207;SDS011;3137;51.550;7.060;2023-06-14T03:50:33;6.47;;;6.03;;
6207;SDS011;3137;51.550;7.060;2023-06-14T03:53:00;8.37;;;6.20;;
6207;SDS011;3137;51.550;7.060;2023-06-14T03:55:27;6.20;;;6.10;;
6207;SDS011;3137;51.550;7.060;2023-06-14T03:57:58;6.43;;;6.33;;
6207;SDS011;3137;51.550;7.060;2023-06-14T04:00:26;7.50;;;6.83;;
6207;SDS011;3137;51.550;7.060;2023-06-14T04:02:53;7.33;;;6.57;;
6207;SDS011;3137;51.550;7.060;2023-06-14T04:05:20;6.00;;;5.63;;
6207;SDS011;3137;51.550;7.060;2023-06-14T04:07:49;6.53;;;6.13;;
6207;SDS011;3137;51.550;7.060;2023-06-14T04:10:16;5.40;;;5.30;;
6207;SDS011;3137;51.550;7.060;2023-06-14T04:12:44;6.23;;;6.03;;
6207;SDS011;3137;51.550;7.060;2023-06-14T04:15:10;6.23;;;6.03;;
6207;SDS011;3137;51.550;7.060;2023-06-14T04:17:46;6.53;;;6.23;;
6207;SDS011;3137;51.550;7.060;2023-06-14T04:20:15;6.30;;;5.73;;
6207;SDS011;3137;51.550;7.060;2023-06-14T04:22:41;6.17;;;5.70;;
6207;SDS011;3137;51.550;7.060;2023-06-14T04:25:10;6.47;;;5.83;;
6207;SDS011;3137;51.550;7.060;2023-06-14T04:27:39;6.50;;;6.10;;
6207;SDS011;3137;51.550;7.060;2023-06-14T04:30:08;5.33;;;5.33;;
6207;SDS011;3137;51.550;7.060;2023-06-14T04:32:39;6.17;;;6.07;;
6207;SDS011;3137;51.550;7.060;2023-06-14T04:35:08;6.63;;;6.40;;
6207;SDS011;3137;51.550;7.060;2023-06-14T04:37:37;8.50;;;5.53;;
6207;SDS011;3137;51.550;7.060;2023-06-14T04:40:06;6.03;;;5.83;;
6207;SDS011;3137;51.550;7.060;2023-06-14T04:42:38;11.40;;;6.27;;
6207;SDS011;3137;51.550;7.060;2023-06-14T04:45:08;6.60;;;5.93;;
6207;SDS011;3137;51.550;7.060;2023-06-14T04:47:37;13.70;;;6.70;;
6207;SDS011;3137;51.550;7.060;2023-06-14T04:50:05;5.80;;;5.70;;
6207;SDS011;3137;51.550;7.060;2023-06-14T04:52:32;6.60;;;6.00;;
6207;SDS011;3137;51.550;7.060;2023-06-14T04:54:59;6.47;;;5.90;;
6207;SDS011;3137;51.550;7.060;2023-06-14T04:57:26;5.97;;;5.73;;
6207;SDS011;3137;51.550;7.060;2023-06-14T04:59:56;6.07;;;5.87;;
6207;SDS011;3137;51.550;7.060;2023-06-14T05:02:24;5.23;;;5.23;;
6207;SDS011;3137;51.550;7.060;2023-06-14T05:04:53;5.67;;;5.57;;
6207;SDS011;3137;51.550;7.060;2023-06-14T05:07:20;5.63;;;5.43;;
6207;SDS011;3137;51.550;7.060;2023-06-14T05:09:48;6.33;;;5.90;;
6207;SDS011;3137;51.550;7.060;2023-06-14T05:12:14;8.43;;;5.97;;
6207;SDS011;3137;51.550;7.060;2023-06-14T05:14:45;6.67;;;6.10;;
6207;SDS011;3137;51.550;7.060;2023-06-14T05:17:14;5.90;;;5.57;;
6207;SDS011;3137;51.550;7.060;2023-06-14T05:19:43;6.03;;;5.53;;
6207;SDS011;3137;51.550;7.060;2023-06-14T05:22:09;5.43;;;5.10;;
6207;SDS011;3137;51.550;7.060;2023-06-14T05:24:35;6.30;;;5.90;;
6207;SDS011;3137;51.550;7.060;2023-06-14T05:27:02;5.50;;;5.30;;
6207;SDS011;3137;51.550;7.060;2023-06-14T05:29:29;7.03;;;6.23;;
6207;SDS011;3137;51.550;7.060;2023-06-14T05:31:56;9.43;;;5.83;;
6207;SDS011;3137;51.550;7.060;2023-06-14T05:34:23;7.67;;;6.20;;
6207;SDS011;3137;51.550;7.060;2023-06-14T05:36:49;6.07;;;5.77;;
6207;SDS011;3137;51.550;7.060;2023-06-14T05:39:16;5.77;;;5.67;;
6207;SDS011;3137;51.550;7.060;2023-06-14T05:41:43;7.77;;;6.10;;
6207;SDS011;3137;51.550;7.060;2023-06-14T05:44:09;5.90;;;5.80;;
6207;SDS011;3137;51.550;7.060;2023-06-14T05:46:36;6.37;;;6.17;;
6207;SDS011;3137;51.550;7.060;2023-06-14T05:49:02;7.17;;;6.60;;
6207;SDS011;3137;51.550;7.060;2023-06-14T05:51:29;5.30;;;5.03;;
6207;SDS011;3137;51.550;7.060;2023-06-14T05:53:56;5.80;;;5.70;;
6207;SDS011;3137;51.550;7.060;2023-06-14T05:56:23;6.60;;;5.53;;
6207;SDS011;3137;51.550;7.060;2023-06-14T05:58:49;9.43;;;5.33;;
6207;SDS011;3137;51.550;7.060;2023-06-14T06:01:16;5.53;;;4.90;;
6207;SDS011;3137;51.550;7.060;2023-06-14T06:03:43;5.80;;;5.43;;
6207;SDS011;3137;51.550;7.060;2023-06-14T06:06:13;5.77;;;5.23;;
6207;SDS011;3137;51.550;7.060;2023-06-14T06:08:40;11.67;;;5.47;;
6207;SDS011;3137;51.550;7.060;2023-06-14T06:11:06;6.00;;;5.00;;
6207;SDS011;3137;51.550;7.060;2023-06-14T06:13:33;5.50;;;5.00;;
6207;SDS011;3137;51.550;7.060;2023-06-14T06:16:01;9.10;;;5.10;;
6207;SDS011;3137;51.550;7.060;2023-06-14T06:18:28;6.50;;;5.67;;
6207;SDS011;3137;51.550;7.060;2023-06-14T06:20:55;5.33;;;5.03;;
6207;SDS011;3137;51.550;7.060;2023-06-14T06:23:21;6.83;;;4.67;;
6207;SDS011;3137;51.550;7.060;2023-06-14T06:25:48;5.40;;;4.93;;
6207;SDS011;3137;51.550;7.060;2023-06-14T06:28:14;4.30;;;4.20;;
6207;SDS011;3137;51.550;7.060;2023-06-14T06:30:41;4.93;;;4.83;;
6207;SDS011;3137;51.550;7.060;2023-06-14T06:33:07;4.40;;;4.10;;
6207;SDS011;3137;51.550;7.060;2023-06-14T06:35:34;5.43;;;4.30;;
6207;SDS011;3137;51.550;7.060;2023-06-14T06:38:00;4.90;;;4.50;;
6207;SDS011;3137;51.550;7.060;2023-06-14T06:40:27;4.60;;;4.60;;
6207;SDS011;3137;51.550;7.060;2023-06-14T06:42:54;7.70;;;5.00;;
6207;SDS011;3137;51.550;7.060;2023-06-14T06:45:20;11.43;;;4.70;;
6207;SDS011;3137;51.550;7.060;2023-06-14T06:47:50;4.47;;;4.17;;
6207;SDS011;3137;51.550;7.060;2023-06-14T06:50:18;4.37;;;4.27;;
6207;SDS011;3137;51.550;7.060;2023-06-14T06:52:45;6.57;;;4.20;;
6207;SDS011;3137;51.550;7.060;2023-06-14T06:55:11;4.97;;;4.20;;
6207;SDS011;3137;51.550;7.060;2023-06-14T06:57:39;4.60;;;4.40;;
6207;SDS011;3137;51.550;7.060;2023-06-14T07:00:06;17.13;;;4.87;;
6207;SDS011;3137;51.550;7.060;2023-06-14T07:02:36;16.37;;;4.50;;
6207;SDS011;3137;51.550;7.060;2023-06-14T07:05:03;10.63;;;4.50;;
6207;SDS011;3137;51.550;7.060;2023-06-14T07:07:30;4.27;;;4.07;;
6207;SDS011;3137;51.550;7.060;2023-06-14T07:09:57;4.73;;;4.60;;
6207;SDS011;3137;51.550;7.060;2023-06-14T07:12:23;5.40;;;4.60;;
6207;SDS011;3137;51.550;7.060;2023-06-14T07:14:50;5.93;;;3.80;;
6207;SDS011;3137;51.550;7.060;2023-06-14T07:17:16;4.43;;;4.17;;
6207;SDS011;3137;51.550;7.060;2023-06-14T07:19:42;4.20;;;4.20;;
6207;SDS011;3137;51.550;7.060;2023-06-14T07:22:10;4.20;;;4.00;;
6207;SDS011;3137;51.550;7.060;2023-06-14T07:24:37;4.30;;;4.00;;
6207;SDS011;3137;51.550;7.060;2023-06-14T07:27:03;4.17;;;3.80;;
6207;SDS011;3137;51.550;7.060;2023-06-14T07:29:30;5.67;;;4.00;;
6207;SDS011;3137;51.550;7.060;2023-06-14T07:31:56;4.60;;;4.20;;
6207;SDS011;3137;51.550;7.060;2023-06-14T07:34:23;4.37;;;4.07;;
6207;SDS011;3137;51.550;7.060;2023-06-14T07:36:49;4.67;;;3.87;;
6207;SDS011;3137;51.550;7.060;2023-06-14T07:39:15;4.30;;;4.20;;
6207;SDS011;3137;51.550;7.060;2023-06-14T07:41:42;4.23;;;3.97;;
6207;SDS011;3137;51.550;7.060;2023-06-14T07:44:08;8.83;;;3.77;;
6207;SDS011;3137;51.550;7.060;2023-06-14T07:46:35;4.10;;;3.83;;
6207;SDS011;3137;51.550;7.060;2023-06-14T07:49:01;4.37;;;4.27;;
6207;SDS011;3137;51.550;7.060;2023-06-14T07:51:28;4.20;;;4.10;;
6207;SDS011;3137;51.550;7.060;2023-06-14T07:53:55;4.40;;;4.30;;
6207;SDS011;3137;51.550;7.060;2023-06-14T07:56:22;3.80;;;3.80;;
6207;SDS011;3137;51.550;7.060;2023-06-14T07:58:49;4.00;;;3.93;;
6207;SDS011;3137;51.550;7.060;2023-06-14T08:01:15;6.60;;;4.67;;
6207;SDS011;3137;51.550;7.060;2023-06-14T08:03:43;4.10;;;4.10;;
6207;SDS011;3137;51.550;7.060;2023-06-14T08:06:09;4.27;;;3.97;;
6207;SDS011;3137;51.550;7.060;2023-06-14T08:08:36;4.80;;;4.23;;
6207;SDS011;3137;51.550;7.060;2023-06-14T08:11:02;4.10;;;3.90;;
6207;SDS011;3137;51.550;7.060;2023-06-14T08:13:29;4.53;;;4.33;;
6207;SDS011;3137;51.550;7.060;2023-06-14T08:15:55;4.53;;;4.37;;
6207;SDS011;3137;51.550;7.060;2023-06-14T08:18:23;4.30;;;4.20;;
6207;SDS011;3137;51.550;7.060;2023-06-14T08:20:50;7.30;;;4.20;;
6207;SDS011;3137;51.550;7.060;2023-06-14T08:23:16;4.33;;;4.10;;
6207;SDS011;3137;51.550;7.060;2023-06-14T08:25:45;4.30;;;4.20;;
6207;SDS011;3137;51.550;7.060;2023-06-14T08:28:11;4.30;;;3.97;;
6207;SDS011;3137;51.550;7.060;2023-06-14T08:30:38;3.87;;;3.87;;
6207;SDS011;3137;51.550;7.060;2023-06-14T08:33:04;4.03;;;3.90;;
6207;SDS011;3137;51.550;7.060;2023-06-14T08:35:42;4.10;;;4.00;;
6207;SDS011;3137;51.550;7.060;2023-06-14T08:38:09;3.17;;;3.17;;
6207;SDS011;3137;51.550;7.060;2023-06-14T08:40:37;6.63;;;2.77;;
6207;SDS011;3137;51.550;7.060;2023-06-14T08:43:04;3.20;;;3.20;;
6207;SDS011;3137;51.550;7.060;2023-06-14T08:45:31;9.33;;;3.70;;
6207;SDS011;3137;51.550;7.060;2023-06-14T08:48:00;3.00;;;3.00;;
6207;SDS011;3137;51.550;7.060;2023-06-14T08:50:27;2.80;;;2.80;;
6207;SDS011;3137;51.550;7.060;2023-06-14T08:52:57;6.43;;;2.80;;
6207;SDS011;3137;51.550;7.060;2023-06-14T08:55:29;6.67;;;3.37;;
6207;SDS011;3137;51.550;7.060;2023-06-14T08:58:00;4.20;;;3.40;;
6207;SDS011;3137;51.550;7.060;2023-06-14T09:00:27;3.43;;;3.07;;
6207;SDS011;3137;51.550;7.060;2023-06-14T09:02:54;3.10;;;2.90;;
6207;SDS011;3137;51.550;7.060;2023-06-14T09:05:25;4.53;;;2.43;;
6207;SDS011;3137;51.550;7.060;2023-06-14T09:07:53;2.70;;;2.70;;
6207;SDS011;3137;51.550;7.060;2023-06-14T09:10:23;2.90;;;2.77;;
6207;SDS011;3137;51.550;7.060;2023-06-14T09:12:52;3.10;;;3.00;;
6207;SDS011;3137;51.550;7.060;2023-06-14T09:15:19;2.50;;;2.40;;
6207;SDS011;3137;51.550;7.060;2023-06-14T09:17:46;2.47;;;2.47;;
6207;SDS011;3137;51.550;7.060;2023-06-14T09:20:13;2.50;;;2.50;;
6207;SDS011;3137;51.550;7.060;2023-06-14T09:22:44;2.43;;;2.33;;
6207;SDS011;3137;51.550;7.060;2023-06-14T09:25:11;2.50;;;2.50;;
6207;SDS011;3137;51.550;7.060;2023-06-14T09:28:01;2.43;;;2.37;;
6207;SDS011;3137;51.550;7.060;2023-06-14T09:30:28;2.50;;;2.50;;
6207;SDS011;3137;51.550;7.060;2023-06-14T09:32:54;2.90;;;2.90;;
6207;SDS011;3137;51.550;7.060;2023-06-14T09:35:21;2.53;;;2.53;;
6207;SDS011;3137;51.550;7.060;2023-06-14T09:37:48;2.73;;;2.73;;
6207;SDS011;3137;51.550;7.060;2023-06-14T09:40:15;2.43;;;2.37;;
6207;SDS011;3137;51.550;7.060;2023-06-14T09:42:46;2.17;;;2.17;;
6207;SDS011;3137;51.550;7.060;2023-06-14T09:45:14;2.23;;;2.23;;
6207;SDS011;3137;51.550;7.060;2023-06-14T09:47:45;3.50;;;2.50;;
6207;SDS011;3137;51.550;7.060;2023-06-14T09:50:31;12.50;;;3.00;;
6207;SDS011;3137;51.550;7.060;2023-06-14T09:52:59;4.23;;;2.10;;
6207;SDS011;3137;51.550;7.060;2023-06-14T09:55:30;2.97;;;2.40;;
6207;SDS011;3137;51.550;7.060;2023-06-14T09:58:00;7.43;;;2.53;;
6207;SDS011;3137;51.550;7.060;2023-06-14T10:00:31;21.73;;;3.17;;
6207;SDS011;3137;51.550;7.060;2023-06-14T10:03:21;1.90;;;1.90;;
6207;SDS011;3137;51.550;7.060;2023-06-14T10:05:59;3.13;;;2.47;;
6207;SDS011;3137;51.550;7.060;2023-06-14T10:08:30;10.03;;;2.23;;
6207;SDS011;3137;51.550;7.060;2023-06-14T10:10:59;6.43;;;2.13;;
6207;SDS011;3137;51.550;7.060;2023-06-14T10:13:26;2.13;;;2.10;;
6207;SDS011;3137;51.550;7.060;2023-06-14T10:16:15;2.40;;;2.07;;
6207;SDS011;3137;51.550;7.060;2023-06-14T10:24:03;2.70;;;1.80;;
6207;SDS011;3137;51.550;7.060;2023-06-14T10:26:33;3.30;;;1.73;;
6207;SDS011;3137;51.550;7.060;2023-06-14T10:29:00;4.63;;;2.63;;
6207;SDS011;3137;51.550;7.060;2023-06-14T10:31:40;2.33;;;2.20;;
6207;SDS011;3137;51.550;7.060;2023-06-14T10:34:06;2.33;;;2.33;;
6207;SDS011;3137;51.550;7.060;2023-06-14T10:36:33;3.70;;;2.60;;
6207;SDS011;3137;51.550;7.060;2023-06-14T10:41:34;7.50;;;2.07;;
6207;SDS011;3137;51.550;7.060;2023-06-14T10:46:38;6.47;;;2.00;;
6207;SDS011;3137;51.550;7.060;2023-06-14T10:49:06;2.40;;;2.20;;
6207;SDS011;3137;51.550;7.060;2023-06-14T10:51:42;7.20;;;2.10;;
6207;SDS011;3137;51.550;7.060;2023-06-14T10:54:15;18.70;;;2.83;;
6207;SDS011;3137;51.550;7.060;2023-06-14T10:56:49;4.93;;;2.33;;
6207;SDS011;3137;51.550;7.060;2023-06-14T10:59:18;3.07;;;2.83;;
6207;SDS011;3137;51.550;7.060;2023-06-14T11:01:56;2.70;;;2.53;;
6207;SDS011;3137;51.550;7.060;2023-06-14T11:04:30;2.97;;;2.73;;
6207;SDS011;3137;51.550;7.060;2023-06-14T11:07:10;2.00;;;2.00;;
6207;SDS011;3137;51.550;7.060;2023-06-14T11:13:02;2.50;;;2.50;;
6207;SDS011;3137;51.550;7.060;2023-06-14T11:15:30;2.50;;;2.50;;
6207;SDS011;3137;51.550;7.060;2023-06-14T11:17:57;7.20;;;2.50;;
6207;SDS011;3137;51.550;7.060;2023-06-14T11:20:27;14.33;;;2.60;;
6207;SDS011;3137;51.550;7.060;2023-06-14T11:22:54;9.17;;;2.87;;
6207;SDS011;3137;51.550;7.060;2023-06-14T11:25:20;3.60;;;2.33;;
6207;SDS011;3137;51.550;7.060;2023-06-14T11:27:48;2.40;;;2.40;;
6207;SDS011;3137;51.550;7.060;2023-06-14T11:30:16;3.10;;;2.53;;
6207;SDS011;3137;51.550;7.060;2023-06-14T11:32:47;2.87;;;2.83;;
6207;SDS011;3137;51.550;7.060;2023-06-14T11:35:14;2.53;;;2.53;;
6207;SDS011;3137;51.550;7.060;2023-06-14T11:37:42;5.63;;;2.97;;
6207;SDS011;3137;51.550;7.060;2023-06-14T11:40:11;5.70;;;2.63;;
6207;SDS011;3137;51.550;7.060;2023-06-14T11:42:39;2.70;;;2.60;;
6207;SDS011;3137;51.550;7.060;2023-06-14T11:45:10;3.70;;;2.87;;
6207;SDS011;3137;51.550;7.060;2023-06-14T11:47:38;7.57;;;2.90;;
6207;SDS011;3137;51.550;7.060;2023-06-14T11:50:06;4.87;;;2.80;;
6207;SDS011;3137;51.550;7.060;2023-06-14T11:52:37;2.80;;;2.80;;
6207;SDS011;3137;51.550;7.060;2023-06-14T11:55:04;2.50;;;2.50;;
6207;SDS011;3137;51.550;7.060;2023-06-14T11:57:34;7.70;;;2.70;;
6207;SDS011;3137;51.550;7.060;2023-06-14T12:00:08;14.53;;;3.67;;
6207;SDS011;3137;51.550;7.060;2023-06-14T12:02:38;3.90;;;3.80;;
6207;SDS011;3137;51.550;7.060;2023-06-14T12:05:07;3.20;;;3.13;;
6207;SDS011;3137;51.550;7.060;2023-06-14T12:07:36;9.23;;;3.43;;
6207;SDS011;3137;51.550;7.060;2023-06-14T12:10:04;4.43;;;4.30;;
6207;SDS011;3137;51.550;7.060;2023-06-14T12:12:38;8.47;;;4.80;;
6207;SDS011;3137;51.550;7.060;2023-06-14T12:15:06;5.53;;;3.87;;
6207;SDS011;3137;51.550;7.060;2023-06-14T12:17:35;4.07;;;3.77;;
6207;SDS011;3137;51.550;7.060;2023-06-14T12:20:05;3.73;;;3.37;;
6207;SDS011;3137;51.550;7.060;2023-06-14T12:22:52;3.73;;;3.60;;
6207;SDS011;3137;51.550;7.060;2023-06-14T12:25:35;9.10;;;3.30;;
6207;SDS011;3137;51.550;7.060;2023-06-14T12:28:06;4.33;;;4.03;;
6207;SDS011;3137;51.550;7.060;2023-06-14T12:30:35;3.30;;;3.20;;
6207;SDS011;3137;51.550;7.060;2023-06-14T12:33:02;4.83;;;3.77;;
6207;SDS011;3137;51.550;7.060;2023-06-14T12:35:30;34.00;;;4.60;;
6207;SDS011;3137;51.550;7.060;2023-06-14T12:37:56;6.67;;;4.10;;
6207;SDS011;3137;51.550;7.060;2023-06-14T12:40:23;11.13;;;4.23;;
6207;SDS011;3137;51.550;7.060;2023-06-14T12:42:49;6.87;;;3.60;;
6207;SDS011;3137;51.550;7.060;2023-06-14T12:45:16;4.20;;;4.20;;
6207;SDS011;3137;51.550;7.060;2023-06-14T12:47:43;3.80;;;3.80;;
6207;SDS011;3137;51.550;7.060;2023-06-14T12:50:09;3.70;;;3.60;;
6207;SDS011;3137;51.550;7.060;2023-06-14T12:52:36;13.47;;;4.33;;
6207;SDS011;3137;51.550;7.060;2023-06-14T12:55:03;6.10;;;3.60;;
6207;SDS011;3137;51.550;7.060;2023-06-14T12:57:30;7.83;;;3.43;;
6207;SDS011;3137;51.550;7.060;2023-06-14T12:59:57;3.93;;;3.63;;
6207;SDS011;3137;51.550;7.060;2023-06-14T13:02:23;4.07;;;3.73;;
6207;SDS011;3137;51.550;7.060;2023-06-14T13:04:51;5.40;;;3.57;;
6207;SDS011;3137;51.550;7.060;2023-06-14T13:07:18;3.70;;;3.70;;
6207;SDS011;3137;51.550;7.060;2023-06-14T13:09:44;3.50;;;3.40;;
6207;SDS011;3137;51.550;7.060;2023-06-14T13:12:11;4.03;;;4.03;;
6207;SDS011;3137;51.550;7.060;2023-06-14T13:14:38;6.53;;;3.80;;
6207;SDS011;3137;51.550;7.060;2023-06-14T13:17:08;3.80;;;3.70;;
6207;SDS011;3137;51.550;7.060;2023-06-14T13:19:35;3.40;;;3.40;;
6207;SDS011;3137;51.550;7.060;2023-06-14T13:22:02;3.77;;;3.77;;
6207;SDS011;3137;51.550;7.060;2023-06-14T13:24:29;3.70;;;3.70;;
6207;SDS011;3137;51.550;7.060;2023-06-14T13:26:56;3.87;;;3.87;;
6207;SDS011;3137;51.550;7.060;2023-06-14T13:29:24;3.70;;;3.60;;
6207;SDS011;3137;51.550;7.060;2023-06-14T13:31:51;5.03;;;3.17;;
6207;SDS011;3137;51.550;7.060;2023-06-14T13:34:17;3.30;;;3.30;;
6207;SDS011;3137;51.550;7.060;2023-06-14T13:36:44;7.80;;;3.30;;
6207;SDS011;3137;51.550;7.060;2023-06-14T13:39:11;16.83;;;4.00;;
6207;SDS011;3137;51.550;7.060;2023-06-14T13:41:38;4.90;;;4.57;;
6207;SDS011;3137;51.550;7.060;2023-06-14T13:44:04;3.77;;;3.77;;
6207;SDS011;3137;51.550;7.060;2023-06-14T13:46:31;3.93;;;3.83;;
6207;SDS011;3137;51.550;7.060;2023-06-14T13:48:58;5.03;;;4.20;;
6207;SDS011;3137;51.550;7.060;2023-06-14T13:51:24;4.70;;;4.27;;
6207;SDS011;3137;51.550;7.060;2023-06-14T13:53:52;4.50;;;4.23;;
6207;SDS011;3137;51.550;7.060;2023-06-14T13:56:19;4.10;;;4.10;;
6207;SDS011;3137;51.550;7.060;2023-06-14T13:58:45;3.70;;;3.70;;
6207;SDS011;3137;51.550;7.060;2023-06-14T14:01:12;3.97;;;3.97;;
6207;SDS011;3137;51.550;7.060;2023-06-14T14:03:39;4.13;;;4.13;;
6207;SDS011;3137;51.550;7.060;2023-06-14T14:06:05;5.23;;;4.00;;
6207;SDS011;3137;51.550;7.060;2023-06-14T14:08:33;4.47;;;4.17;;
6207;SDS011;3137;51.550;7.060;2023-06-14T14:11:01;4.73;;;4.30;;
6207;SDS011;3137;51.550;7.060;2023-06-14T14:13:27;4.83;;;4.60;;
6207;SDS011;3137;51.550;7.060;2023-06-14T14:15:54;4.83;;;4.40;;
6207;SDS011;3137;51.550;7.060;2023-06-14T14:18:21;4.70;;;4.37;;
6207;SDS011;3137;51.550;7.060;2023-06-14T14:20:48;4.03;;;4.03;;
6207;SDS011;3137;51.550;7.060;2023-06-14T14:23:14;4.17;;;4.07;;
6207;SDS011;3137;51.550;7.060;2023-06-14T14:25:41;3.87;;;3.87;;
6207;SDS011;3137;51.550;7.060;2023-06-14T14:28:07;5.20;;;4.53;;
6207;SDS011;3137;51.550;7.060;2023-06-14T14:30:34;4.40;;;4.00;;
6207;SDS011;3137;51.550;7.060;2023-06-14T14:33:00;4.57;;;4.47;;
6207;SDS011;3137;51.550;7.060;2023-06-14T14:35:27;11.33;;;4.70;;
6207;SDS011;3137;51.550;7.060;2023-06-14T14:37:56;5.57;;;4.93;;
6207;SDS011;3137;51.550;7.060;2023-06-14T14:40:23;4.00;;;4.00;;
6207;SDS011;3137;51.550;7.060;2023-06-14T14:42:49;4.47;;;4.37;;
6207;SDS011;3137;51.550;7.060;2023-06-14T14:45:16;4.37;;;4.03;;
6207;SDS011;3137;51.550;7.060;2023-06-14T14:47:42;5.37;;;4.30;;
6207;SDS011;3137;51.550;7.060;2023-06-14T14:50:09;4.30;;;4.00;;
6207;SDS011;3137;51.550;7.060;2023-06-14T14:52:36;4.67;;;4.30;;
6207;SDS011;3137;51.550;7.060;2023-06-14T14:55:02;4.90;;;4.60;;
6207;SDS011;3137;51.550;7.060;2023-06-14T14:57:29;4.70;;;4.50;;
6207;SDS011;3137;51.550;7.060;2023-06-14T14:59:56;4.37;;;4.17;;
6207;SDS011;3137;51.550;7.060;2023-06-14T15:02:22;4.30;;;4.20;;
6207;SDS011;3137;51.550;7.060;2023-06-14T15:04:50;4.53;;;4.30;;
6207;SDS011;3137;51.550;7.060;2023-06-14T15:07:16;4.23;;;4.23;;
6207;SDS011;3137;51.550;7.060;2023-06-14T15:09:42;5.50;;;5.00;;
6207;SDS011;3137;51.550;7.060;2023-06-14T15:12:09;4.13;;;4.10;;
6207;SDS011;3137;51.550;7.060;2023-06-14T15:14:37;4.40;;;4.20;;
6207;SDS011;3137;51.550;7.060;2023-06-14T15:17:03;4.00;;;3.83;;
6207;SDS011;3137;51.550;7.060;2023-06-14T15:19:33;4.33;;;4.33;;
6207;SDS011;3137;51.550;7.060;2023-06-14T15:22:02;6.77;;;5.00;;
6207;SDS011;3137;51.550;7.060;2023-06-14T15:24:29;4.70;;;4.33;;
6207;SDS011;3137;51.550;7.060;2023-06-14T15:27:08;4.47;;;4.47;;
6207;SDS011;3137;51.550;7.060;2023-06-14T15:29:34;3.90;;;3.90;;
6207;SDS011;3137;51.550;7.060;2023-06-14T15:32:01;23.63;;;4.23;;
6207;SDS011;3137;51.550;7.060;2023-06-14T15:34:27;4.53;;;4.33;;
6207;SDS011;3137;51.550;7.060;2023-06-14T15:36:54;4.40;;;4.30;;
6207;SDS011;3137;51.550;7.060;2023-06-14T15:39:21;4.50;;;4.40;;